sensor_id;sensor_type;location;lat;lon;timestamp;P1;durP1;ratioP1;P2;durP2;ratioP2
65996;SDS011;52765;52.258;21.052;2023-03-19T00:01:54;27.00;;;11.18;;
65996;SDS011;52765;52.258;21.052;2023-03-19T00:04:21;29.00;;;11.52;;
65996;SDS011;52765;52.258;21.052;2023-03-19T00:06:48;27.17;;;11.00;;
65996;SDS011;52765;52.258;21.052;2023-03-19T00:09:14;26.35;;;12.05;;
65996;SDS011;52765;52.258;21.052;2023-03-19T00:11:40;25.67;;;10.40;;
65996;SDS011;52765;52.258;21.052;2023-03-19T00:14:06;27.73;;;11.57;;
65996;SDS011;52765;52.258;21.052;2023-03-19T00:16:31;25.88;;;11.80;;
65996;SDS011;52765;52.258;21.052;2023-03-19T00:18:57;25.63;;;11.70;;
65996;SDS011;52765;52.258;21.052;2023-03-19T00:21:23;29.55;;;11.48;;
65996;SDS011;52765;52.258;21.052;2023-03-19T00:23:48;28.20;;;11.85;;
65996;SDS011;52765;52.258;21.052;2023-03-19T00:26:14;27.63;;;11.38;;
65996;SDS011;52765;52.258;21.052;2023-03-19T00:28:40;29.55;;;12.30;;
65996;SDS011;52765;52.258;21.052;2023-03-19T00:31:07;30.10;;;11.65;;
65996;SDS011;52765;52.258;21.052;2023-03-19T00:33:37;30.13;;;12.68;;
65996;SDS011;52765;52.258;21.052;2023-03-19T00:36:02;26.92;;;10.93;;
65996;SDS011;52765;52.258;21.052;2023-03-19T00:38:29;31.30;;;13.07;;
65996;SDS011;52765;52.258;21.052;2023-03-19T00:40:56;23.80;;;10.23;;
65996;SDS011;52765;52.258;21.052;2023-03-19T00:43:21;28.90;;;11.90;;
65996;SDS011;52765;52.258;21.052;2023-03-19T00:45:47;26.88;;;11.20;;
65996;SDS011;52765;52.258;21.052;2023-03-19T00:48:13;27.60;;;11.00;;
65996;SDS011;52765;52.258;21.052;2023-03-19T00:50:38;25.35;;;11.07;;
65996;SDS011;52765;52.258;21.052;2023-03-19T00:53:04;27.38;;;12.45;;
65996;SDS011;52765;52.258;21.052;2023-03-19T00:55:29;27.65;;;11.18;;
65996;SDS011;52765;52.258;21.052;2023-03-19T00:57:55;29.77;;;11.27;;
65996;SDS011;52765;52.258;21.052;2023-03-19T01:00:20;25.63;;;12.18;;
65996;SDS011;52765;52.258;21.052;2023-03-19T01:02:46;30.05;;;11.82;;
65996;SDS011;52765;52.258;21.052;2023-03-19T01:05:11;31.73;;;12.10;;
65996;SDS011;52765;52.258;21.052;2023-03-19T01:07:37;30.17;;;11.88;;
65996;SDS011;52765;52.258;21.052;2023-03-19T01:10:03;27.00;;;11.57;;
65996;SDS011;52765;52.258;21.052;2023-03-19T01:12:29;27.30;;;11.80;;
65996;SDS011;52765;52.258;21.052;2023-03-19T01:14:54;29.30;;;11.90;;
65996;SDS011;52765;52.258;21.052;2023-03-19T01:17:20;33.28;;;12.05;;
65996;SDS011;52765;52.258;21.052;2023-03-19T01:19:45;30.05;;;12.68;;
65996;SDS011;52765;52.258;21.052;2023-03-19T01:22:11;26.27;;;11.70;;
65996;SDS011;52765;52.258;21.052;2023-03-19T01:24:38;27.45;;;11.35;;
65996;SDS011;52765;52.258;21.052;2023-03-19T01:27:03;32.25;;;12.32;;
65996;SDS011;52765;52.258;21.052;2023-03-19T01:29:30;25.52;;;11.70;;
65996;SDS011;52765;52.258;21.052;2023-03-19T01:31:56;29.95;;;11.80;;
65996;SDS011;52765;52.258;21.052;2023-03-19T01:34:21;32.42;;;13.45;;
65996;SDS011;52765;52.258;21.052;2023-03-19T01:36:47;36.10;;;13.40;;
65996;SDS011;52765;52.258;21.052;2023-03-19T01:39:13;29.83;;;12.15;;
65996;SDS011;52765;52.258;21.052;2023-03-19T01:41:38;28.17;;;11.82;;
65996;SDS011;52765;52.258;21.052;2023-03-19T01:44:21;27.42;;;12.32;;
65996;SDS011;52765;52.258;21.052;2023-03-19T01:47:14;27.67;;;11.70;;
65996;SDS011;52765;52.258;21.052;2023-03-19T01:49:45;29.75;;;11.88;;
65996;SDS011;52765;52.258;21.052;2023-03-19T01:52:16;27.67;;;12.38;;
65996;SDS011;52765;52.258;21.052;2023-03-19T01:54:47;30.05;;;11.93;;
65996;SDS011;52765;52.258;21.052;2023-03-19T01:57:15;31.63;;;12.52;;
65996;SDS011;52765;52.258;21.052;2023-03-19T01:59:45;27.80;;;12.43;;
65996;SDS011;52765;52.258;21.052;2023-03-19T02:04:59;26.98;;;12.40;;
65996;SDS011;52765;52.258;21.052;2023-03-19T02:07:29;26.73;;;12.50;;
65996;SDS011;52765;52.258;21.052;2023-03-19T02:09:58;31.30;;;12.70;;
65996;SDS011;52765;52.258;21.052;2023-03-19T02:12:26;26.75;;;12.85;;
65996;SDS011;52765;52.258;21.052;2023-03-19T02:14:52;26.33;;;12.25;;
65996;SDS011;52765;52.258;21.052;2023-03-19T02:17:18;26.40;;;12.18;;
65996;SDS011;52765;52.258;21.052;2023-03-19T02:22:21;28.70;;;12.73;;
65996;SDS011;52765;52.258;21.052;2023-03-19T02:24:53;29.48;;;13.52;;
65996;SDS011;52765;52.258;21.052;2023-03-19T02:27:23;30.75;;;12.23;;
65996;SDS011;52765;52.258;21.052;2023-03-19T02:29:49;30.42;;;13.73;;
65996;SDS011;52765;52.258;21.052;2023-03-19T02:32:14;30.60;;;12.20;;
65996;SDS011;52765;52.258;21.052;2023-03-19T02:34:41;27.92;;;13.25;;
65996;SDS011;52765;52.258;21.052;2023-03-19T02:37:28;29.38;;;13.10;;
65996;SDS011;52765;52.258;21.052;2023-03-19T02:39:58;29.92;;;12.57;;
65996;SDS011;52765;52.258;21.052;2023-03-19T02:42:28;32.15;;;12.73;;
65996;SDS011;52765;52.258;21.052;2023-03-19T02:44:54;30.55;;;12.95;;
65996;SDS011;52765;52.258;21.052;2023-03-19T02:47:20;33.47;;;13.73;;
65996;SDS011;52765;52.258;21.052;2023-03-19T02:49:46;27.45;;;12.15;;
65996;SDS011;52765;52.258;21.052;2023-03-19T02:52:12;29.33;;;11.82;;
65996;SDS011;52765;52.258;21.052;2023-03-19T02:54:37;28.20;;;12.85;;
65996;SDS011;52765;52.258;21.052;2023-03-19T02:57:03;27.90;;;13.02;;
65996;SDS011;52765;52.258;21.052;2023-03-19T02:59:28;31.65;;;13.50;;
65996;SDS011;52765;52.258;21.052;2023-03-19T03:01:54;28.52;;;13.93;;
65996;SDS011;52765;52.258;21.052;2023-03-19T03:04:19;32.35;;;12.88;;
65996;SDS011;52765;52.258;21.052;2023-03-19T03:06:45;28.70;;;12.25;;
65996;SDS011;52765;52.258;21.052;2023-03-19T03:09:11;27.48;;;13.35;;
65996;SDS011;52765;52.258;21.052;2023-03-19T03:11:37;32.17;;;13.98;;
65996;SDS011;52765;52.258;21.052;2023-03-19T03:14:05;33.45;;;13.10;;
65996;SDS011;52765;52.258;21.052;2023-03-19T03:16:30;32.13;;;13.80;;
65996;SDS011;52765;52.258;21.052;2023-03-19T03:18:57;29.90;;;13.18;;
65996;SDS011;52765;52.258;21.052;2023-03-19T03:21:22;25.67;;;12.63;;
65996;SDS011;52765;52.258;21.052;2023-03-19T03:23:48;34.58;;;14.10;;
65996;SDS011;52765;52.258;21.052;2023-03-19T03:26:13;36.22;;;14.13;;
65996;SDS011;52765;52.258;21.052;2023-03-19T03:28:39;30.60;;;13.85;;
65996;SDS011;52765;52.258;21.052;2023-03-19T03:31:05;30.63;;;12.60;;
65996;SDS011;52765;52.258;21.052;2023-03-19T03:33:36;28.60;;;12.60;;
65996;SDS011;52765;52.258;21.052;2023-03-19T03:36:02;33.67;;;13.45;;
65996;SDS011;52765;52.258;21.052;2023-03-19T03:38:27;33.22;;;13.93;;
65996;SDS011;52765;52.258;21.052;2023-03-19T03:40:53;32.10;;;14.38;;
65996;SDS011;52765;52.258;21.052;2023-03-19T03:43:19;32.58;;;13.60;;
65996;SDS011;52765;52.258;21.052;2023-03-19T03:45:45;34.45;;;13.38;;
65996;SDS011;52765;52.258;21.052;2023-03-19T03:48:14;26.70;;;13.05;;
65996;SDS011;52765;52.258;21.052;2023-03-19T03:50:40;34.70;;;13.88;;
65996;SDS011;52765;52.258;21.052;2023-03-19T03:53:05;31.52;;;13.13;;
65996;SDS011;52765;52.258;21.052;2023-03-19T03:55:31;30.92;;;13.27;;
65996;SDS011;52765;52.258;21.052;2023-03-19T03:57:57;29.15;;;12.80;;
65996;SDS011;52765;52.258;21.052;2023-03-19T04:00:23;27.25;;;13.25;;
65996;SDS011;52765;52.258;21.052;2023-03-19T04:02:49;33.05;;;14.05;;
65996;SDS011;52765;52.258;21.052;2023-03-19T04:05:15;32.58;;;13.38;;
65996;SDS011;52765;52.258;21.052;2023-03-19T04:07:41;30.77;;;12.73;;
65996;SDS011;52765;52.258;21.052;2023-03-19T04:10:07;32.45;;;13.55;;
65996;SDS011;52765;52.258;21.052;2023-03-19T04:12:35;31.02;;;13.38;;
65996;SDS011;52765;52.258;21.052;2023-03-19T04:15:02;30.55;;;12.90;;
65996;SDS011;52765;52.258;21.052;2023-03-19T04:17:29;35.00;;;13.75;;
65996;SDS011;52765;52.258;21.052;2023-03-19T04:19:54;29.95;;;13.25;;
65996;SDS011;52765;52.258;21.052;2023-03-19T04:22:20;35.90;;;14.18;;
65996;SDS011;52765;52.258;21.052;2023-03-19T04:24:46;30.73;;;12.52;;
65996;SDS011;52765;52.258;21.052;2023-03-19T04:27:11;26.95;;;12.27;;
65996;SDS011;52765;52.258;21.052;2023-03-19T04:29:40;29.30;;;11.90;;
65996;SDS011;52765;52.258;21.052;2023-03-19T04:32:05;25.25;;;12.10;;
65996;SDS011;52765;52.258;21.052;2023-03-19T04:34:31;26.02;;;12.18;;
65996;SDS011;52765;52.258;21.052;2023-03-19T04:36:56;27.95;;;11.73;;
65996;SDS011;52765;52.258;21.052;2023-03-19T04:39:22;30.75;;;13.18;;
65996;SDS011;52765;52.258;21.052;2023-03-19T04:41:48;31.10;;;12.45;;
65996;SDS011;52765;52.258;21.052;2023-03-19T04:44:14;38.33;;;12.98;;
65996;SDS011;52765;52.258;21.052;2023-03-19T04:46:39;24.50;;;11.73;;
65996;SDS011;52765;52.258;21.052;2023-03-19T04:49:05;28.85;;;11.75;;
65996;SDS011;52765;52.258;21.052;2023-03-19T04:51:32;28.00;;;12.02;;
65996;SDS011;52765;52.258;21.052;2023-03-19T04:53:57;31.58;;;12.93;;
65996;SDS011;52765;52.258;21.052;2023-03-19T04:56:23;29.13;;;13.05;;
65996;SDS011;52765;52.258;21.052;2023-03-19T04:58:49;28.63;;;12.13;;
65996;SDS011;52765;52.258;21.052;2023-03-19T05:01:15;29.90;;;13.68;;
65996;SDS011;52765;52.258;21.052;2023-03-19T05:03:41;27.00;;;12.85;;
65996;SDS011;52765;52.258;21.052;2023-03-19T05:06:06;28.85;;;12.75;;
65996;SDS011;52765;52.258;21.052;2023-03-19T05:08:32;28.92;;;12.35;;
65996;SDS011;52765;52.258;21.052;2023-03-19T05:10:59;28.83;;;12.90;;
65996;SDS011;52765;52.258;21.052;2023-03-19T05:13:29;29.88;;;12.68;;
65996;SDS011;52765;52.258;21.052;2023-03-19T05:15:55;30.65;;;12.70;;
65996;SDS011;52765;52.258;21.052;2023-03-19T05:18:22;31.13;;;12.52;;
65996;SDS011;52765;52.258;21.052;2023-03-19T05:20:51;26.58;;;11.40;;
65996;SDS011;52765;52.258;21.052;2023-03-19T05:23:17;26.65;;;13.18;;
65996;SDS011;52765;52.258;21.052;2023-03-19T05:25:43;31.33;;;12.18;;
65996;SDS011;52765;52.258;21.052;2023-03-19T05:28:08;28.98;;;12.13;;
65996;SDS011;52765;52.258;21.052;2023-03-19T05:30:34;31.02;;;13.75;;
65996;SDS011;52765;52.258;21.052;2023-03-19T05:32:59;30.25;;;12.55;;
65996;SDS011;52765;52.258;21.052;2023-03-19T05:35:26;29.55;;;12.88;;
65996;SDS011;52765;52.258;21.052;2023-03-19T05:37:53;27.75;;;12.25;;
65996;SDS011;52765;52.258;21.052;2023-03-19T05:40:19;33.97;;;13.80;;
65996;SDS011;52765;52.258;21.052;2023-03-19T05:42:46;32.05;;;12.32;;
65996;SDS011;52765;52.258;21.052;2023-03-19T05:45:11;32.05;;;12.00;;
65996;SDS011;52765;52.258;21.052;2023-03-19T05:47:37;27.77;;;12.23;;
65996;SDS011;52765;52.258;21.052;2023-03-19T05:50:03;26.63;;;11.88;;
65996;SDS011;52765;52.258;21.052;2023-03-19T05:52:30;27.08;;;11.13;;
65996;SDS011;52765;52.258;21.052;2023-03-19T05:54:56;27.80;;;12.65;;
65996;SDS011;52765;52.258;21.052;2023-03-19T05:57:21;31.38;;;12.32;;
65996;SDS011;52765;52.258;21.052;2023-03-19T05:59:47;30.23;;;12.65;;
65996;SDS011;52765;52.258;21.052;2023-03-19T06:02:12;30.40;;;12.73;;
65996;SDS011;52765;52.258;21.052;2023-03-19T06:04:38;29.85;;;12.98;;
65996;SDS011;52765;52.258;21.052;2023-03-19T06:07:03;31.58;;;12.80;;
65996;SDS011;52765;52.258;21.052;2023-03-19T06:09:29;27.27;;;12.02;;
65996;SDS011;52765;52.258;21.052;2023-03-19T06:11:54;27.45;;;12.50;;
65996;SDS011;52765;52.258;21.052;2023-03-19T06:14:20;27.92;;;12.73;;
65996;SDS011;52765;52.258;21.052;2023-03-19T06:16:45;30.02;;;13.38;;
65996;SDS011;52765;52.258;21.052;2023-03-19T06:19:11;28.88;;;13.07;;
65996;SDS011;52765;52.258;21.052;2023-03-19T06:21:36;26.80;;;12.15;;
65996;SDS011;52765;52.258;21.052;2023-03-19T06:24:02;30.98;;;13.55;;
65996;SDS011;52765;52.258;21.052;2023-03-19T06:26:28;26.55;;;12.25;;
65996;SDS011;52765;52.258;21.052;2023-03-19T06:28:53;27.70;;;12.55;;
65996;SDS011;52765;52.258;21.052;2023-03-19T06:31:19;25.60;;;12.00;;
65996;SDS011;52765;52.258;21.052;2023-03-19T06:33:45;26.48;;;12.45;;
65996;SDS011;52765;52.258;21.052;2023-03-19T06:36:10;27.67;;;12.27;;
65996;SDS011;52765;52.258;21.052;2023-03-19T06:38:36;30.08;;;12.35;;
65996;SDS011;52765;52.258;21.052;2023-03-19T06:41:02;30.42;;;12.85;;
65996;SDS011;52765;52.258;21.052;2023-03-19T06:43:27;32.28;;;12.85;;
65996;SDS011;52765;52.258;21.052;2023-03-19T06:45:53;28.20;;;11.88;;
65996;SDS011;52765;52.258;21.052;2023-03-19T06:48:18;28.60;;;12.85;;
65996;SDS011;52765;52.258;21.052;2023-03-19T06:50:44;32.80;;;13.68;;
65996;SDS011;52765;52.258;21.052;2023-03-19T06:53:11;27.83;;;12.68;;
65996;SDS011;52765;52.258;21.052;2023-03-19T06:55:37;27.17;;;13.93;;
65996;SDS011;52765;52.258;21.052;2023-03-19T06:58:02;30.05;;;13.13;;
65996;SDS011;52765;52.258;21.052;2023-03-19T07:00:28;29.73;;;12.90;;
65996;SDS011;52765;52.258;21.052;2023-03-19T07:02:55;33.22;;;13.93;;
65996;SDS011;52765;52.258;21.052;2023-03-19T07:05:20;33.03;;;13.55;;
65996;SDS011;52765;52.258;21.052;2023-03-19T07:07:46;31.08;;;13.63;;
65996;SDS011;52765;52.258;21.052;2023-03-19T07:10:11;30.65;;;13.63;;
65996;SDS011;52765;52.258;21.052;2023-03-19T07:12:37;36.80;;;14.02;;
65996;SDS011;52765;52.258;21.052;2023-03-19T07:15:02;29.88;;;14.00;;
65996;SDS011;52765;52.258;21.052;2023-03-19T07:17:28;28.55;;;13.27;;
65996;SDS011;52765;52.258;21.052;2023-03-19T07:19:54;31.30;;;13.63;;
65996;SDS011;52765;52.258;21.052;2023-03-19T07:22:19;31.35;;;13.65;;
65996;SDS011;52765;52.258;21.052;2023-03-19T07:24:45;30.20;;;13.27;;
65996;SDS011;52765;52.258;21.052;2023-03-19T07:27:11;35.63;;;15.10;;
65996;SDS011;52765;52.258;21.052;2023-03-19T07:29:36;30.08;;;13.85;;
65996;SDS011;52765;52.258;21.052;2023-03-19T07:32:02;33.10;;;13.45;;
65996;SDS011;52765;52.258;21.052;2023-03-19T07:34:28;28.92;;;12.63;;
65996;SDS011;52765;52.258;21.052;2023-03-19T07:36:53;32.42;;;13.05;;
65996;SDS011;52765;52.258;21.052;2023-03-19T07:39:19;28.15;;;12.88;;
65996;SDS011;52765;52.258;21.052;2023-03-19T07:41:44;32.35;;;13.20;;
65996;SDS011;52765;52.258;21.052;2023-03-19T07:44:12;31.80;;;14.48;;
65996;SDS011;52765;52.258;21.052;2023-03-19T07:46:38;33.88;;;13.65;;
65996;SDS011;52765;52.258;21.052;2023-03-19T07:49:04;27.20;;;13.48;;
65996;SDS011;52765;52.258;21.052;2023-03-19T07:51:29;27.55;;;12.32;;
65996;SDS011;52765;52.258;21.052;2023-03-19T07:53:55;29.23;;;15.07;;
65996;SDS011;52765;52.258;21.052;2023-03-19T07:56:20;28.27;;;13.70;;
65996;SDS011;52765;52.258;21.052;2023-03-19T07:58:46;32.00;;;14.05;;
65996;SDS011;52765;52.258;21.052;2023-03-19T08:01:11;26.05;;;13.23;;
65996;SDS011;52765;52.258;21.052;2023-03-19T08:03:37;24.75;;;13.02;;
65996;SDS011;52765;52.258;21.052;2023-03-19T08:06:02;29.42;;;14.68;;
65996;SDS011;52765;52.258;21.052;2023-03-19T08:08:28;27.13;;;13.52;;
65996;SDS011;52765;52.258;21.052;2023-03-19T08:10:54;29.45;;;14.40;;
65996;SDS011;52765;52.258;21.052;2023-03-19T08:13:20;26.17;;;12.32;;
65996;SDS011;52765;52.258;21.052;2023-03-19T08:15:47;30.52;;;14.65;;
65996;SDS011;52765;52.258;21.052;2023-03-19T08:18:13;29.38;;;14.00;;
65996;SDS011;52765;52.258;21.052;2023-03-19T08:20:39;30.90;;;13.30;;
65996;SDS011;52765;52.258;21.052;2023-03-19T08:23:05;22.58;;;11.95;;
65996;SDS011;52765;52.258;21.052;2023-03-19T08:25:30;26.27;;;12.35;;
65996;SDS011;52765;52.258;21.052;2023-03-19T08:27:59;22.00;;;11.30;;
65996;SDS011;52765;52.258;21.052;2023-03-19T08:30:25;20.70;;;10.63;;
65996;SDS011;52765;52.258;21.052;2023-03-19T08:32:50;25.95;;;12.25;;
65996;SDS011;52765;52.258;21.052;2023-03-19T08:35:16;26.35;;;12.18;;
65996;SDS011;52765;52.258;21.052;2023-03-19T08:37:43;22.42;;;11.35;;
65996;SDS011;52765;52.258;21.052;2023-03-19T08:40:08;22.58;;;10.80;;
65996;SDS011;52765;52.258;21.052;2023-03-19T08:42:37;26.55;;;11.50;;
65996;SDS011;52765;52.258;21.052;2023-03-19T08:45:06;27.20;;;12.65;;
65996;SDS011;52765;52.258;21.052;2023-03-19T08:47:36;21.63;;;11.70;;
65996;SDS011;52765;52.258;21.052;2023-03-19T08:50:01;20.52;;;11.18;;
65996;SDS011;52765;52.258;21.052;2023-03-19T08:52:30;20.23;;;10.35;;
65996;SDS011;52765;52.258;21.052;2023-03-19T08:54:55;20.50;;;10.77;;
65996;SDS011;52765;52.258;21.052;2023-03-19T08:57:21;21.98;;;11.82;;
65996;SDS011;52765;52.258;21.052;2023-03-19T08:59:46;21.27;;;10.73;;
65996;SDS011;52765;52.258;21.052;2023-03-19T09:02:12;23.63;;;11.30;;
65996;SDS011;52765;52.258;21.052;2023-03-19T09:04:43;24.98;;;10.82;;
65996;SDS011;52765;52.258;21.052;2023-03-19T09:07:09;20.17;;;10.57;;
65996;SDS011;52765;52.258;21.052;2023-03-19T09:09:37;19.70;;;10.90;;
65996;SDS011;52765;52.258;21.052;2023-03-19T09:12:04;22.75;;;11.48;;
65996;SDS011;52765;52.258;21.052;2023-03-19T09:14:31;21.27;;;11.65;;
65996;SDS011;52765;52.258;21.052;2023-03-19T09:16:57;22.23;;;11.68;;
65996;SDS011;52765;52.258;21.052;2023-03-19T09:19:22;32.38;;;14.40;;
65996;SDS011;52765;52.258;21.052;2023-03-19T09:21:48;22.88;;;11.68;;
65996;SDS011;52765;52.258;21.052;2023-03-19T09:24:14;22.27;;;11.15;;
65996;SDS011;52765;52.258;21.052;2023-03-19T09:26:39;20.73;;;11.45;;
65996;SDS011;52765;52.258;21.052;2023-03-19T09:29:05;21.35;;;11.20;;
65996;SDS011;52765;52.258;21.052;2023-03-19T09:31:31;19.92;;;10.30;;
65996;SDS011;52765;52.258;21.052;2023-03-19T09:33:56;20.40;;;9.90;;
65996;SDS011;52765;52.258;21.052;2023-03-19T09:36:22;17.85;;;9.85;;
65996;SDS011;52765;52.258;21.052;2023-03-19T09:38:47;22.98;;;11.57;;
65996;SDS011;52765;52.258;21.052;2023-03-19T09:49:30;20.30;;;10.82;;
65996;SDS011;52765;52.258;21.052;2023-03-19T09:54:49;17.52;;;9.18;;
65996;SDS011;52765;52.258;21.052;2023-03-19T09:57:22;16.63;;;10.68;;
65996;SDS011;52765;52.258;21.052;2023-03-19T09:59:48;17.67;;;10.23;;
65996;SDS011;52765;52.258;21.052;2023-03-19T10:02:23;18.05;;;10.02;;
65996;SDS011;52765;52.258;21.052;2023-03-19T10:05:13;18.05;;;9.77;;
65996;SDS011;52765;52.258;21.052;2023-03-19T10:10:41;14.52;;;8.98;;
65996;SDS011;52765;52.258;21.052;2023-03-19T10:15:48;15.90;;;9.02;;
65996;SDS011;52765;52.258;21.052;2023-03-19T10:20:46;22.85;;;9.82;;
65996;SDS011;52765;52.258;21.052;2023-03-19T10:26:11;14.65;;;7.85;;
65996;SDS011;52765;52.258;21.052;2023-03-19T10:28:41;16.92;;;8.57;;
65996;SDS011;52765;52.258;21.052;2023-03-19T10:33:57;14.38;;;7.93;;
65996;SDS011;52765;52.258;21.052;2023-03-19T10:36:34;18.00;;;8.48;;
65996;SDS011;52765;52.258;21.052;2023-03-19T10:39:01;13.98;;;7.15;;
65996;SDS011;52765;52.258;21.052;2023-03-19T10:41:45;14.63;;;8.20;;
65996;SDS011;52765;52.258;21.052;2023-03-19T10:47:12;12.95;;;7.72;;
65996;SDS011;52765;52.258;21.052;2023-03-19T10:49:41;14.68;;;7.43;;
65996;SDS011;52765;52.258;21.052;2023-03-19T10:54:54;16.63;;;8.20;;
65996;SDS011;52765;52.258;21.052;2023-03-19T10:57:26;16.60;;;8.30;;
65996;SDS011;52765;52.258;21.052;2023-03-19T10:59:53;14.82;;;7.80;;
65996;SDS011;52765;52.258;21.052;2023-03-19T11:02:20;17.33;;;8.38;;
65996;SDS011;52765;52.258;21.052;2023-03-19T11:05:04;13.00;;;7.40;;
65996;SDS011;52765;52.258;21.052;2023-03-19T11:07:32;26.40;;;8.57;;
65996;SDS011;52765;52.258;21.052;2023-03-19T11:10:00;13.95;;;8.15;;
65996;SDS011;52765;52.258;21.052;2023-03-19T11:12:27;13.52;;;8.38;;
65996;SDS011;52765;52.258;21.052;2023-03-19T11:14:58;12.88;;;7.78;;
65996;SDS011;52765;52.258;21.052;2023-03-19T11:17:25;16.27;;;8.35;;
65996;SDS011;52765;52.258;21.052;2023-03-19T11:20:04;14.43;;;8.65;;
65996;SDS011;52765;52.258;21.052;2023-03-19T11:22:44;11.88;;;6.95;;
65996;SDS011;52765;52.258;21.052;2023-03-19T11:25:18;13.45;;;6.95;;
65996;SDS011;52765;52.258;21.052;2023-03-19T11:27:57;15.27;;;8.70;;
65996;SDS011;52765;52.258;21.052;2023-03-19T11:30:25;17.50;;;8.40;;
65996;SDS011;52765;52.258;21.052;2023-03-19T11:33:14;15.27;;;8.15;;
65996;SDS011;52765;52.258;21.052;2023-03-19T11:36:08;14.88;;;8.57;;
65996;SDS011;52765;52.258;21.052;2023-03-19T11:38:39;15.05;;;8.00;;
65996;SDS011;52765;52.258;21.052;2023-03-19T11:47:06;11.57;;;7.65;;
65996;SDS011;52765;52.258;21.052;2023-03-19T12:01:23;14.10;;;8.00;;
65996;SDS011;52765;52.258;21.052;2023-03-19T12:04:05;14.90;;;8.07;;
65996;SDS011;52765;52.258;21.052;2023-03-19T12:06:48;13.23;;;8.43;;
65996;SDS011;52765;52.258;21.052;2023-03-19T12:09:28;16.25;;;8.10;;
65996;SDS011;52765;52.258;21.052;2023-03-19T12:12:29;15.25;;;7.60;;
65996;SDS011;52765;52.258;21.052;2023-03-19T12:15:27;15.88;;;7.50;;
65996;SDS011;52765;52.258;21.052;2023-03-19T12:20:52;16.55;;;8.55;;
65996;SDS011;52765;52.258;21.052;2023-03-19T12:23:30;14.23;;;7.63;;
65996;SDS011;52765;52.258;21.052;2023-03-19T12:26:16;14.45;;;7.70;;
65996;SDS011;52765;52.258;21.052;2023-03-19T12:29:15;12.10;;;6.93;;
65996;SDS011;52765;52.258;21.052;2023-03-19T12:31:48;15.25;;;7.60;;
65996;SDS011;52765;52.258;21.052;2023-03-19T12:34:28;19.20;;;8.18;;
65996;SDS011;52765;52.258;21.052;2023-03-19T12:42:39;12.70;;;7.28;;
65996;SDS011;52765;52.258;21.052;2023-03-19T12:45:21;13.25;;;7.07;;
65996;SDS011;52765;52.258;21.052;2023-03-19T12:47:57;11.57;;;7.10;;
65996;SDS011;52765;52.258;21.052;2023-03-19T12:50:28;17.43;;;8.90;;
65996;SDS011;52765;52.258;21.052;2023-03-19T12:52:58;12.63;;;7.25;;
65996;SDS011;52765;52.258;21.052;2023-03-19T12:55:44;12.80;;;8.32;;
65996;SDS011;52765;52.258;21.052;2023-03-19T13:11:31;15.77;;;8.18;;
65996;SDS011;52765;52.258;21.052;2023-03-19T13:14:07;11.88;;;7.65;;
65996;SDS011;52765;52.258;21.052;2023-03-19T13:16:53;22.00;;;7.95;;
65996;SDS011;52765;52.258;21.052;2023-03-19T13:22:18;14.48;;;7.32;;
65996;SDS011;52765;52.258;21.052;2023-03-19T13:24:48;11.90;;;6.90;;
65996;SDS011;52765;52.258;21.052;2023-03-19T13:35:19;10.48;;;6.57;;
65996;SDS011;52765;52.258;21.052;2023-03-19T13:40:53;13.13;;;7.05;;
65996;SDS011;52765;52.258;21.052;2023-03-19T13:53:54;16.08;;;8.55;;
65996;SDS011;52765;52.258;21.052;2023-03-19T13:56:35;11.20;;;6.75;;
65996;SDS011;52765;52.258;21.052;2023-03-19T13:59:32;18.63;;;7.38;;
65996;SDS011;52765;52.258;21.052;2023-03-19T14:01:58;12.00;;;6.20;;
65996;SDS011;52765;52.258;21.052;2023-03-19T14:04:26;10.68;;;6.55;;
65996;SDS011;52765;52.258;21.052;2023-03-19T14:09:39;9.30;;;5.88;;
65996;SDS011;52765;52.258;21.052;2023-03-19T14:25:19;11.90;;;6.97;;
65996;SDS011;52765;52.258;21.052;2023-03-19T14:27:47;11.27;;;6.70;;
65996;SDS011;52765;52.258;21.052;2023-03-19T14:30:25;11.15;;;6.22;;
65996;SDS011;52765;52.258;21.052;2023-03-19T14:32:51;11.52;;;6.60;;
65996;SDS011;52765;52.258;21.052;2023-03-19T14:35:20;13.95;;;7.03;;
65996;SDS011;52765;52.258;21.052;2023-03-19T14:37:50;17.58;;;7.07;;
65996;SDS011;52765;52.258;21.052;2023-03-19T14:40:21;13.73;;;7.05;;
65996;SDS011;52765;52.258;21.052;2023-03-19T14:45:58;11.50;;;7.00;;
65996;SDS011;52765;52.258;21.052;2023-03-19T14:48:42;12.10;;;7.60;;
65996;SDS011;52765;52.258;21.052;2023-03-19T14:57:06;11.43;;;6.20;;
65996;SDS011;52765;52.258;21.052;2023-03-19T14:59:40;11.27;;;6.53;;
65996;SDS011;52765;52.258;21.052;2023-03-19T15:02:16;11.07;;;5.80;;
65996;SDS011;52765;52.258;21.052;2023-03-19T15:04:46;13.25;;;7.40;;
65996;SDS011;52765;52.258;21.052;2023-03-19T15:07:32;10.25;;;6.35;;
65996;SDS011;52765;52.258;21.052;2023-03-19T15:10:03;13.80;;;7.55;;
65996;SDS011;52765;52.258;21.052;2023-03-19T15:20:17;27.40;;;12.23;;
65996;SDS011;52765;52.258;21.052;2023-03-19T15:22:52;19.10;;;9.35;;
65996;SDS011;52765;52.258;21.052;2023-03-19T15:25:23;13.57;;;7.00;;
65996;SDS011;52765;52.258;21.052;2023-03-19T15:28:06;12.25;;;7.18;;
65996;SDS011;52765;52.258;21.052;2023-03-19T15:30:36;10.73;;;7.38;;
65996;SDS011;52765;52.258;21.052;2023-03-19T15:33:02;14.93;;;7.88;;
65996;SDS011;52765;52.258;21.052;2023-03-19T15:35:31;16.38;;;7.18;;
65996;SDS011;52765;52.258;21.052;2023-03-19T15:38:00;13.90;;;6.97;;
65996;SDS011;52765;52.258;21.052;2023-03-19T15:40:30;16.60;;;7.05;;
65996;SDS011;52765;52.258;21.052;2023-03-19T15:43:00;12.80;;;7.45;;
65996;SDS011;52765;52.258;21.052;2023-03-19T15:45:26;12.50;;;6.57;;
65996;SDS011;52765;52.258;21.052;2023-03-19T15:47:55;13.77;;;6.97;;
65996;SDS011;52765;52.258;21.052;2023-03-19T15:50:26;12.20;;;6.93;;
65996;SDS011;52765;52.258;21.052;2023-03-19T15:52:58;13.00;;;7.30;;
65996;SDS011;52765;52.258;21.052;2023-03-19T15:55:26;11.23;;;6.70;;
65996;SDS011;52765;52.258;21.052;2023-03-19T15:57:53;10.90;;;6.53;;
65996;SDS011;52765;52.258;21.052;2023-03-19T16:00:21;12.30;;;7.15;;
65996;SDS011;52765;52.258;21.052;2023-03-19T16:02:48;13.98;;;7.07;;
65996;SDS011;52765;52.258;21.052;2023-03-19T16:05:23;9.85;;;6.40;;
65996;SDS011;52765;52.258;21.052;2023-03-19T16:07:50;11.23;;;6.47;;
65996;SDS011;52765;52.258;21.052;2023-03-19T16:10:59;9.65;;;5.85;;
65996;SDS011;52765;52.258;21.052;2023-03-19T16:13:31;12.85;;;5.95;;
65996;SDS011;52765;52.258;21.052;2023-03-19T16:16:20;11.60;;;6.50;;
65996;SDS011;52765;52.258;21.052;2023-03-19T16:18:51;10.30;;;5.97;;
65996;SDS011;52765;52.258;21.052;2023-03-19T16:21:35;11.32;;;6.82;;
65996;SDS011;52765;52.258;21.052;2023-03-19T16:26:48;13.05;;;7.10;;
65996;SDS011;52765;52.258;21.052;2023-03-19T16:29:19;13.13;;;7.20;;
65996;SDS011;52765;52.258;21.052;2023-03-19T16:31:51;15.18;;;8.02;;
65996;SDS011;52765;52.258;21.052;2023-03-19T16:34:24;11.00;;;7.05;;
65996;SDS011;52765;52.258;21.052;2023-03-19T16:36:58;10.30;;;6.32;;
65996;SDS011;52765;52.258;21.052;2023-03-19T16:39:34;13.75;;;6.65;;